sensor_id;sensor_type;location;lat;lon;timestamp;temperature;humidity
20182;DHT22;10250;50.756;6.172;2023-06-24T00:00:30;17.40;99.90
20182;DHT22;10250;50.756;6.172;2023-06-24T00:02:31;17.60;99.90
20182;DHT22;10250;50.756;6.172;2023-06-24T00:04:32;17.60;79.00
20182;DHT22;10250;50.756;6.172;2023-06-24T00:06:32;17.60;49.40
20182;DHT22;10250;50.756;6.172;2023-06-24T00:08:33;17.50;51.90
20182;DHT22;10250;50.756;6.172;2023-06-24T00:10:37;17.50;56.00
20182;DHT22;10250;50.756;6.172;2023-06-24T00:12:38;17.40;59.90
20182;DHT22;10250;50.756;6.172;2023-06-24T00:14:39;17.40;84.30
20182;DHT22;10250;50.756;6.172;2023-06-24T00:16:40;17.40;89.00
20182;DHT22;10250;50.756;6.172;2023-06-24T00:18:42;17.30;88.10
20182;DHT22;10250;50.756;6.172;2023-06-24T00:20:42;17.30;86.50
20182;DHT22;10250;50.756;6.172;2023-06-24T00:22:43;17.30;93.60
20182;DHT22;10250;50.756;6.172;2023-06-24T00:24:44;17.30;98.80
20182;DHT22;10250;50.756;6.172;2023-06-24T00:26:48;17.40;73.50
20182;DHT22;10250;50.756;6.172;2023-06-24T00:28:48;17.40;58.80
20182;DHT22;10250;50.756;6.172;2023-06-24T00:30:49;17.40;40.80
20182;DHT22;10250;50.756;6.172;2023-06-24T00:32:50;17.30;80.90
20182;DHT22;10250;50.756;6.172;2023-06-24T00:34:50;17.20;99.90
20182;DHT22;10250;50.756;6.172;2023-06-24T00:36:51;17.30;95.20
20182;DHT22;10250;50.756;6.172;2023-06-24T00:38:52;17.20;93.10
20182;DHT22;10250;50.756;6.172;2023-06-24T00:40:53;17.20;97.20
20182;DHT22;10250;50.756;6.172;2023-06-24T00:42:53;17.10;93.60
20182;DHT22;10250;50.756;6.172;2023-06-24T00:44:54;17.10;95.70
20182;DHT22;10250;50.756;6.172;2023-06-24T00:46:55;17.00;92.30
20182;DHT22;10250;50.756;6.172;2023-06-24T00:48:56;17.00;99.90
20182;DHT22;10250;50.756;6.172;2023-06-24T00:50:57;16.90;99.90
20182;DHT22;10250;50.756;6.172;2023-06-24T00:52:58;16.90;99.90
20182;DHT22;10250;50.756;6.172;2023-06-24T00:54:59;16.90;99.90
20182;DHT22;10250;50.756;6.172;2023-06-24T00:57:01;16.90;99.90
20182;DHT22;10250;50.756;6.172;2023-06-24T00:59:02;16.90;99.90
20182;DHT22;10250;50.756;6.172;2023-06-24T01:01:05;16.90;99.90
20182;DHT22;10250;50.756;6.172;2023-06-24T01:03:10;16.90;99.70
20182;DHT22;10250;50.756;6.172;2023-06-24T01:05:14;16.90;93.90
20182;DHT22;10250;50.756;6.172;2023-06-24T01:07:15;16.90;92.90
20182;DHT22;10250;50.756;6.172;2023-06-24T01:09:17;17.00;93.10
20182;DHT22;10250;50.756;6.172;2023-06-24T01:11:17;17.00;77.20
20182;DHT22;10250;50.756;6.172;2023-06-24T01:13:18;17.00;54.60
20182;DHT22;10250;50.756;6.172;2023-06-24T01:15:19;17.00;84.60
20182;DHT22;10250;50.756;6.172;2023-06-24T01:17:33;17.00;72.70
20182;DHT22;10250;50.756;6.172;2023-06-24T01:19:58;17.00;50.50
20182;DHT22;10250;50.756;6.172;2023-06-24T01:32:28;16.80;92.40
20182;DHT22;10250;50.756;6.172;2023-06-24T01:34:36;16.80;91.50
20182;DHT22;10250;50.756;6.172;2023-06-24T01:36:39;16.90;95.00
20182;DHT22;10250;50.756;6.172;2023-06-24T01:38:45;16.90;91.90
20182;DHT22;10250;50.756;6.172;2023-06-24T01:40:47;16.80;92.80
20182;DHT22;10250;50.756;6.172;2023-06-24T01:42:49;16.80;95.50
20182;DHT22;10250;50.756;6.172;2023-06-24T01:44:51;16.80;99.90
20182;DHT22;10250;50.756;6.172;2023-06-24T01:46:55;16.70;96.90
20182;DHT22;10250;50.756;6.172;2023-06-24T01:49:01;16.80;99.90
20182;DHT22;10250;50.756;6.172;2023-06-24T01:51:17;16.80;97.10
20182;DHT22;10250;50.756;6.172;2023-06-24T01:53:19;16.70;92.10
20182;DHT22;10250;50.756;6.172;2023-06-24T01:55:21;16.70;99.90
20182;DHT22;10250;50.756;6.172;2023-06-24T01:57:24;16.80;99.90
20182;DHT22;10250;50.756;6.172;2023-06-24T01:59:28;16.80;99.90
20182;DHT22;10250;50.756;6.172;2023-06-24T02:01:31;16.70;99.90
20182;DHT22;10250;50.756;6.172;2023-06-24T02:03:33;16.80;99.90
20182;DHT22;10250;50.756;6.172;2023-06-24T02:05:34;16.80;99.90
20182;DHT22;10250;50.756;6.172;2023-06-24T02:07:37;16.80;99.90
20182;DHT22;10250;50.756;6.172;2023-06-24T02:09:38;16.90;89.60
20182;DHT22;10250;50.756;6.172;2023-06-24T02:11:39;16.90;70.00
20182;DHT22;10250;50.756;6.172;2023-06-24T02:13:42;16.90;58.00
20182;DHT22;10250;50.756;6.172;2023-06-24T02:15:44;16.90;46.50
20182;DHT22;10250;50.756;6.172;2023-06-24T02:17:48;16.80;60.90
20182;DHT22;10250;50.756;6.172;2023-06-24T02:19:50;16.90;82.60
20182;DHT22;10250;50.756;6.172;2023-06-24T02:21:53;17.00;62.50
20182;DHT22;10250;50.756;6.172;2023-06-24T02:23:55;17.00;42.30
20182;DHT22;10250;50.756;6.172;2023-06-24T02:25:57;17.00;45.80
20182;DHT22;10250;50.756;6.172;2023-06-24T02:27:58;16.90;45.20
20182;DHT22;10250;50.756;6.172;2023-06-24T02:29:59;16.90;33.40
20182;DHT22;10250;50.756;6.172;2023-06-24T02:32:00;17.00;32.10
20182;DHT22;10250;50.756;6.172;2023-06-24T02:34:01;16.90;28.00
20182;DHT22;10250;50.756;6.172;2023-06-24T02:36:01;16.90;24.90
20182;DHT22;10250;50.756;6.172;2023-06-24T02:38:02;16.90;32.50
20182;DHT22;10250;50.756;6.172;2023-06-24T02:40:04;16.90;47.20
20182;DHT22;10250;50.756;6.172;2023-06-24T02:42:06;16.80;50.80
20182;DHT22;10250;50.756;6.172;2023-06-24T02:44:06;16.90;69.10
20182;DHT22;10250;50.756;6.172;2023-06-24T02:46:08;16.90;74.70
20182;DHT22;10250;50.756;6.172;2023-06-24T02:48:10;17.00;38.70
20182;DHT22;10250;50.756;6.172;2023-06-24T02:50:12;17.00;34.50
20182;DHT22;10250;50.756;6.172;2023-06-24T02:52:15;16.90;45.70
20182;DHT22;10250;50.756;6.172;2023-06-24T02:54:15;16.90;49.70
20182;DHT22;10250;50.756;6.172;2023-06-24T02:56:16;16.90;34.50
20182;DHT22;10250;50.756;6.172;2023-06-24T02:58:21;17.00;37.60
20182;DHT22;10250;50.756;6.172;2023-06-24T03:00:22;17.00;14.30
20182;DHT22;10250;50.756;6.172;2023-06-24T03:02:23;16.90;33.10
20182;DHT22;10250;50.756;6.172;2023-06-24T03:04:24;16.90;49.20
20182;DHT22;10250;50.756;6.172;2023-06-24T03:06:26;16.80;50.70
20182;DHT22;10250;50.756;6.172;2023-06-24T03:08:27;16.80;54.40
20182;DHT22;10250;50.756;6.172;2023-06-24T03:10:28;16.90;53.70
20182;DHT22;10250;50.756;6.172;2023-06-24T03:12:29;16.90;36.00
20182;DHT22;10250;50.756;6.172;2023-06-24T03:14:29;16.90;48.90
20182;DHT22;10250;50.756;6.172;2023-06-24T03:16:30;16.90;42.40
20182;DHT22;10250;50.756;6.172;2023-06-24T03:18:31;16.90;49.70
20182;DHT22;10250;50.756;6.172;2023-06-24T03:20:32;16.80;57.50
20182;DHT22;10250;50.756;6.172;2023-06-24T03:22:38;16.80;73.60
20182;DHT22;10250;50.756;6.172;2023-06-24T03:24:39;16.80;74.30
20182;DHT22;10250;50.756;6.172;2023-06-24T03:26:40;16.80;70.50
20182;DHT22;10250;50.756;6.172;2023-06-24T03:28:41;16.80;66.60
20182;DHT22;10250;50.756;6.172;2023-06-24T03:30:42;16.80;66.20
20182;DHT22;10250;50.756;6.172;2023-06-24T03:32:42;16.80;71.00
20182;DHT22;10250;50.756;6.172;2023-06-24T03:34:47;16.70;70.70
20182;DHT22;10250;50.756;6.172;2023-06-24T03:36:47;16.70;91.70
20182;DHT22;10250;50.756;6.172;2023-06-24T03:38:48;16.70;96.40
20182;DHT22;10250;50.756;6.172;2023-06-24T03:40:48;16.70;99.90
20182;DHT22;10250;50.756;6.172;2023-06-24T03:42:49;16.70;98.90
20182;DHT22;10250;50.756;6.172;2023-06-24T03:44:49;16.80;91.50
20182;DHT22;10250;50.756;6.172;2023-06-24T03:46:50;16.80;92.40
20182;DHT22;10250;50.756;6.172;2023-06-24T03:48:51;16.70;92.90
20182;DHT22;10250;50.756;6.172;2023-06-24T03:50:52;16.70;99.90
20182;DHT22;10250;50.756;6.172;2023-06-24T03:52:52;16.70;99.90
20182;DHT22;10250;50.756;6.172;2023-06-24T03:54:53;16.70;99.90
20182;DHT22;10250;50.756;6.172;2023-06-24T03:56:53;16.80;99.90
20182;DHT22;10250;50.756;6.172;2023-06-24T03:58:54;16.80;99.90
20182;DHT22;10250;50.756;6.172;2023-06-24T04:00:55;16.80;99.90
20182;DHT22;10250;50.756;6.172;2023-06-24T04:02:57;16.80;99.90
20182;DHT22;10250;50.756;6.172;2023-06-24T04:05:01;16.80;99.90
20182;DHT22;10250;50.756;6.172;2023-06-24T04:07:02;16.80;99.90
20182;DHT22;10250;50.756;6.172;2023-06-24T04:09:03;16.80;99.90
20182;DHT22;10250;50.756;6.172;2023-06-24T04:11:03;16.80;99.90
20182;DHT22;10250;50.756;6.172;2023-06-24T04:13:04;16.80;99.90
20182;DHT22;10250;50.756;6.172;2023-06-24T04:15:05;16.80;99.90
20182;DHT22;10250;50.756;6.172;2023-06-24T04:17:06;16.80;99.90
20182;DHT22;10250;50.756;6.172;2023-06-24T04:19:07;16.90;99.90
20182;DHT22;10250;50.756;6.172;2023-06-24T04:21:07;16.90;99.90
20182;DHT22;10250;50.756;6.172;2023-06-24T04:23:08;16.80;99.90
20182;DHT22;10250;50.756;6.172;2023-06-24T04:25:11;16.90;99.90
20182;DHT22;10250;50.756;6.172;2023-06-24T04:27:12;17.00;99.90
20182;DHT22;10250;50.756;6.172;2023-06-24T04:29:13;17.00;93.30
20182;DHT22;10250;50.756;6.172;2023-06-24T04:31:13;17.00;86.30
20182;DHT22;10250;50.756;6.172;2023-06-24T04:33:14;17.00;85.00
20182;DHT22;10250;50.756;6.172;2023-06-24T04:35:15;17.10;81.80
20182;DHT22;10250;50.756;6.172;2023-06-24T04:37:15;17.20;69.00
20182;DHT22;10250;50.756;6.172;2023-06-24T04:39:16;17.20;51.20
20182;DHT22;10250;50.756;6.172;2023-06-24T04:41:16;17.20;57.00
20182;DHT22;10250;50.756;6.172;2023-06-24T04:43:19;17.30;59.00
20182;DHT22;10250;50.756;6.172;2023-06-24T04:45:20;17.30;36.80
20182;DHT22;10250;50.756;6.172;2023-06-24T04:47:21;17.30;56.10
20182;DHT22;10250;50.756;6.172;2023-06-24T04:49:22;17.40;36.60
20182;DHT22;10250;50.756;6.172;2023-06-24T04:51:22;17.30;56.90
20182;DHT22;10250;50.756;6.172;2023-06-24T04:53:23;17.40;30.60
20182;DHT22;10250;50.756;6.172;2023-06-24T04:55:24;17.40;23.80
20182;DHT22;10250;50.756;6.172;2023-06-24T04:57:27;17.40;25.00
20182;DHT22;10250;50.756;6.172;2023-06-24T04:59:28;17.40;34.80
20182;DHT22;10250;50.756;6.172;2023-06-24T05:01:28;17.50;35.60
20182;DHT22;10250;50.756;6.172;2023-06-24T05:03:29;17.50;16.80
20182;DHT22;10250;50.756;6.172;2023-06-24T05:05:29;17.40;17.40
20182;DHT22;10250;50.756;6.172;2023-06-24T05:07:30;17.50;34.30
20182;DHT22;10250;50.756;6.172;2023-06-24T05:09:30;17.60;31.70
20182;DHT22;10250;50.756;6.172;2023-06-24T05:11:31;17.60;29.90
20182;DHT22;10250;50.756;6.172;2023-06-24T05:13:32;17.70;24.80
20182;DHT22;10250;50.756;6.172;2023-06-24T05:15:32;17.70;8.80
20182;DHT22;10250;50.756;6.172;2023-06-24T05:17:33;17.80;16.40
20182;DHT22;10250;50.756;6.172;2023-06-24T05:19:33;17.90;2.60
20182;DHT22;10250;50.756;6.172;2023-06-24T05:21:34;17.90;1.00
20182;DHT22;10250;50.756;6.172;2023-06-24T05:23:35;18.00;1.00
20182;DHT22;10250;50.756;6.172;2023-06-24T05:25:35;18.00;1.00
20182;DHT22;10250;50.756;6.172;2023-06-24T05:27:36;18.10;1.00
20182;DHT22;10250;50.756;6.172;2023-06-24T05:29:36;18.10;1.00
20182;DHT22;10250;50.756;6.172;2023-06-24T05:31:37;18.10;1.00
20182;DHT22;10250;50.756;6.172;2023-06-24T05:33:38;18.20;1.00
20182;DHT22;10250;50.756;6.172;2023-06-24T05:35:38;18.40;1.00
20182;DHT22;10250;50.756;6.172;2023-06-24T05:37:41;18.40;1.00
20182;DHT22;10250;50.756;6.172;2023-06-24T05:39:41;18.40;1.00
20182;DHT22;10250;50.756;6.172;2023-06-24T05:41:51;18.40;1.00
20182;DHT22;10250;50.756;6.172;2023-06-24T05:44:06;18.50;1.00
20182;DHT22;10250;50.756;6.172;2023-06-24T05:46:07;18.60;1.00
20182;DHT22;10250;50.756;6.172;2023-06-24T05:48:07;18.70;1.00
20182;DHT22;10250;50.756;6.172;2023-06-24T05:50:08;18.70;1.00
20182;DHT22;10250;50.756;6.172;2023-06-24T05:52:09;18.80;1.00
20182;DHT22;10250;50.756;6.172;2023-06-24T05:54:10;18.90;1.00
20182;DHT22;10250;50.756;6.172;2023-06-24T05:56:10;19.10;1.00
20182;DHT22;10250;50.756;6.172;2023-06-24T05:58:11;19.10;1.00
20182;DHT22;10250;50.756;6.172;2023-06-24T06:00:11;19.40;1.00
20182;DHT22;10250;50.756;6.172;2023-06-24T06:02:12;19.50;1.00
20182;DHT22;10250;50.756;6.172;2023-06-24T06:04:13;19.60;1.00
20182;DHT22;10250;50.756;6.172;2023-06-24T06:06:13;19.60;99.90
20182;DHT22;10250;50.756;6.172;2023-06-24T06:08:14;19.80;1.00
20182;DHT22;10250;50.756;6.172;2023-06-24T06:10:14;19.90;1.00
20182;DHT22;10250;50.756;6.172;2023-06-24T06:12:17;20.00;99.90
20182;DHT22;10250;50.756;6.172;2023-06-24T06:14:18;20.10;99.90
20182;DHT22;10250;50.756;6.172;2023-06-24T06:16:18;20.10;99.90
20182;DHT22;10250;50.756;6.172;2023-06-24T06:18:19;20.40;91.90
20182;DHT22;10250;50.756;6.172;2023-06-24T06:20:19;20.40;1.00
20182;DHT22;10250;50.756;6.172;2023-06-24T06:22:20;20.60;1.00
20182;DHT22;10250;50.756;6.172;2023-06-24T06:24:21;20.70;1.00
20182;DHT22;10250;50.756;6.172;2023-06-24T06:26:21;21.00;99.90
20182;DHT22;10250;50.756;6.172;2023-06-24T06:28:22;21.70;1.00
20182;DHT22;10250;50.756;6.172;2023-06-24T06:30:22;22.00;1.00
20182;DHT22;10250;50.756;6.172;2023-06-24T06:32:29;21.60;1.00
20182;DHT22;10250;50.756;6.172;2023-06-24T06:34:29;21.20;1.00
20182;DHT22;10250;50.756;6.172;2023-06-24T06:36:30;20.90;1.00
20182;DHT22;10250;50.756;6.172;2023-06-24T06:38:32;21.00;35.10
20182;DHT22;10250;50.756;6.172;2023-06-24T06:40:33;21.50;1.00
20182;DHT22;10250;50.756;6.172;2023-06-24T06:42:35;21.50;1.00
20182;DHT22;10250;50.756;6.172;2023-06-24T06:44:36;21.40;1.00
20182;DHT22;10250;50.756;6.172;2023-06-24T06:46:36;21.40;99.90
20182;DHT22;10250;50.756;6.172;2023-06-24T06:48:37;21.60;17.60
20182;DHT22;10250;50.756;6.172;2023-06-24T06:50:38;21.60;1.00
20182;DHT22;10250;50.756;6.172;2023-06-24T06:52:41;21.70;1.00
20182;DHT22;10250;50.756;6.172;2023-06-24T06:54:41;22.00;1.00
20182;DHT22;10250;50.756;6.172;2023-06-24T06:56:42;22.40;1.00
20182;DHT22;10250;50.756;6.172;2023-06-24T06:58:43;22.40;1.00
20182;DHT22;10250;50.756;6.172;2023-06-24T07:00:43;22.40;99.90
20182;DHT22;10250;50.756;6.172;2023-06-24T07:02:44;22.60;1.00
20182;DHT22;10250;50.756;6.172;2023-06-24T07:04:44;22.60;99.90
20182;DHT22;10250;50.756;6.172;2023-06-24T07:06:45;22.70;99.90
20182;DHT22;10250;50.756;6.172;2023-06-24T07:08:46;22.70;1.00
20182;DHT22;10250;50.756;6.172;2023-06-24T07:10:46;22.70;1.00
20182;DHT22;10250;50.756;6.172;2023-06-24T07:12:47;22.90;99.90
20182;DHT22;10250;50.756;6.172;2023-06-24T07:14:48;22.80;99.90
20182;DHT22;10250;50.756;6.172;2023-06-24T07:16:48;22.60;99.90
20182;DHT22;10250;50.756;6.172;2023-06-24T07:18:49;22.40;99.90
20182;DHT22;10250;50.756;6.172;2023-06-24T07:20:49;22.50;99.90
20182;DHT22;10250;50.756;6.172;2023-06-24T07:22:50;22.50;99.90
20182;DHT22;10250;50.756;6.172;2023-06-24T07:24:56;22.40;99.90
20182;DHT22;10250;50.756;6.172;2023-06-24T07:27:00;22.50;99.90
20182;DHT22;10250;50.756;6.172;2023-06-24T07:29:00;22.50;99.90
20182;DHT22;10250;50.756;6.172;2023-06-24T07:31:01;22.50;99.90
20182;DHT22;10250;50.756;6.172;2023-06-24T07:33:02;22.50;99.90
20182;DHT22;10250;50.756;6.172;2023-06-24T07:35:06;22.80;99.90
20182;DHT22;10250;50.756;6.172;2023-06-24T07:37:06;23.00;99.90
20182;DHT22;10250;50.756;6.172;2023-06-24T07:39:07;23.00;99.90
20182;DHT22;10250;50.756;6.172;2023-06-24T07:41:07;23.00;99.90
20182;DHT22;10250;50.756;6.172;2023-06-24T07:43:11;22.90;99.90
20182;DHT22;10250;50.756;6.172;2023-06-24T07:45:11;22.90;99.90
20182;DHT22;10250;50.756;6.172;2023-06-24T07:47:12;22.70;99.90
20182;DHT22;10250;50.756;6.172;2023-06-24T07:49:13;23.20;99.90
20182;DHT22;10250;50.756;6.172;2023-06-24T07:51:13;23.40;99.90
20182;DHT22;10250;50.756;6.172;2023-06-24T07:53:14;23.50;99.90
20182;DHT22;10250;50.756;6.172;2023-06-24T07:55:14;23.50;99.90
20182;DHT22;10250;50.756;6.172;2023-06-24T07:57:15;23.10;99.90
20182;DHT22;10250;50.756;6.172;2023-06-24T07:59:16;23.40;99.90
20182;DHT22;10250;50.756;6.172;2023-06-24T08:01:16;23.60;99.90
20182;DHT22;10250;50.756;6.172;2023-06-24T08:03:17;23.70;99.90
20182;DHT22;10250;50.756;6.172;2023-06-24T08:05:17;23.70;99.90
20182;DHT22;10250;50.756;6.172;2023-06-24T08:07:21;23.40;99.90
20182;DHT22;10250;50.756;6.172;2023-06-24T08:09:21;23.30;99.90
20182;DHT22;10250;50.756;6.172;2023-06-24T08:11:22;23.60;99.90
20182;DHT22;10250;50.756;6.172;2023-06-24T08:13:22;23.60;99.90
20182;DHT22;10250;50.756;6.172;2023-06-24T08:15:23;23.50;99.90
20182;DHT22;10250;50.756;6.172;2023-06-24T08:17:23;23.50;99.90
20182;DHT22;10250;50.756;6.172;2023-06-24T08:19:24;23.40;99.90
20182;DHT22;10250;50.756;6.172;2023-06-24T08:21:25;23.20;99.90
20182;DHT22;10250;50.756;6.172;2023-06-24T08:23:25;23.20;99.90
20182;DHT22;10250;50.756;6.172;2023-06-24T08:25:28;23.20;99.90
20182;DHT22;10250;50.756;6.172;2023-06-24T08:27:29;23.20;99.90
20182;DHT22;10250;50.756;6.172;2023-06-24T08:29:29;23.40;99.90
20182;DHT22;10250;50.756;6.172;2023-06-24T08:31:30;23.30;99.90
20182;DHT22;10250;50.756;6.172;2023-06-24T08:33:30;23.20;99.90
20182;DHT22;10250;50.756;6.172;2023-06-24T08:35:31;23.00;99.90
20182;DHT22;10250;50.756;6.172;2023-06-24T08:37:31;22.80;99.90
20182;DHT22;10250;50.756;6.172;2023-06-24T08:39:32;23.00;99.90
20182;DHT22;10250;50.756;6.172;2023-06-24T08:41:33;23.40;99.90
20182;DHT22;10250;50.756;6.172;2023-06-24T08:43:33;23.60;99.90
20182;DHT22;10250;50.756;6.172;2023-06-24T08:45:34;23.40;99.90
20182;DHT22;10250;50.756;6.172;2023-06-24T08:47:35;23.70;99.90
20182;DHT22;10250;50.756;6.172;2023-06-24T08:50:22;23.50;99.90
20182;DHT22;10250;50.756;6.172;2023-06-24T08:52:11;23.50;99.90
20182;DHT22;10250;50.756;6.172;2023-06-24T08:54:14;23.90;99.90
20182;DHT22;10250;50.756;6.172;2023-06-24T08:56:15;24.10;99.90
20182;DHT22;10250;50.756;6.172;2023-06-24T08:58:16;24.00;99.90
20182;DHT22;10250;50.756;6.172;2023-06-24T09:00:17;23.70;99.90
20182;DHT22;10250;50.756;6.172;2023-06-24T09:02:18;23.90;99.90
20182;DHT22;10250;50.756;6.172;2023-06-24T09:04:19;23.60;99.90
20182;DHT22;10250;50.756;6.172;2023-06-24T09:06:20;23.70;99.90
20182;DHT22;10250;50.756;6.172;2023-06-24T09:08:21;23.70;99.30
20182;DHT22;10250;50.756;6.172;2023-06-24T09:10:36;23.70;96.70
20182;DHT22;10250;50.756;6.172;2023-06-24T09:12:37;23.90;58.50
20182;DHT22;10250;50.756;6.172;2023-06-24T09:14:37;23.90;41.60
20182;DHT22;10250;50.756;6.172;2023-06-24T09:16:38;24.10;54.20
20182;DHT22;10250;50.756;6.172;2023-06-24T09:18:39;24.30;40.70
20182;DHT22;10250;50.756;6.172;2023-06-24T09:20:41;24.30;26.40
20182;DHT22;10250;50.756;6.172;2023-06-24T09:22:45;24.00;28.20
20182;DHT22;10250;50.756;6.172;2023-06-24T09:24:47;24.00;17.00
20182;DHT22;10250;50.756;6.172;2023-06-24T09:26:48;24.10;3.60
20182;DHT22;10250;50.756;6.172;2023-06-24T09:28:48;24.00;20.40
20182;DHT22;10250;50.756;6.172;2023-06-24T09:31:12;23.70;33.20
20182;DHT22;10250;50.756;6.172;2023-06-24T09:33:12;24.00;26.60
20182;DHT22;10250;50.756;6.172;2023-06-24T09:35:14;24.10;19.30
20182;DHT22;10250;50.756;6.172;2023-06-24T09:37:21;24.10;1.00
20182;DHT22;10250;50.756;6.172;2023-06-24T09:39:23;24.40;2.30
20182;DHT22;10250;50.756;6.172;2023-06-24T09:41:29;24.20;5.70
20182;DHT22;10250;50.756;6.172;2023-06-24T09:43:33;24.20;1.00
20182;DHT22;10250;50.756;6.172;2023-06-24T09:45:35;24.20;2.90
20182;DHT22;10250;50.756;6.172;2023-06-24T09:47:35;24.30;1.00
20182;DHT22;10250;50.756;6.172;2023-06-24T09:49:36;24.30;1.00
20182;DHT22;10250;50.756;6.172;2023-06-24T09:51:47;24.10;1.00
20182;DHT22;10250;50.756;6.172;2023-06-24T09:53:48;24.30;1.00
20182;DHT22;10250;50.756;6.172;2023-06-24T09:55:52;24.30;1.00
20182;DHT22;10250;50.756;6.172;2023-06-24T09:57:54;24.40;1.00
20182;DHT22;10250;50.756;6.172;2023-06-24T09:59:55;24.30;1.00
20182;DHT22;10250;50.756;6.172;2023-06-24T10:01:57;24.20;1.00
20182;DHT22;10250;50.756;6.172;2023-06-24T10:03:58;24.10;1.00
20182;DHT22;10250;50.756;6.172;2023-06-24T10:06:01;24.20;1.00
20182;DHT22;10250;50.756;6.172;2023-06-24T10:08:04;24.20;1.00
20182;DHT22;10250;50.756;6.172;2023-06-24T10:10:06;24.40;1.00
20182;DHT22;10250;50.756;6.172;2023-06-24T10:12:07;24.40;1.00
20182;DHT22;10250;50.756;6.172;2023-06-24T10:14:08;24.00;1.00
20182;DHT22;10250;50.756;6.172;2023-06-24T10:16:09;24.10;1.00
20182;DHT22;10250;50.756;6.172;2023-06-24T10:18:32;24.40;1.00
20182;DHT22;10250;50.756;6.172;2023-06-24T10:20:37;24.50;1.00
20182;DHT22;10250;50.756;6.172;2023-06-24T22:16:37;19.80;1.00
20182;DHT22;10250;50.756;6.172;2023-06-24T22:18:38;20.00;1.00
20182;DHT22;10250;50.756;6.172;2023-06-24T22:20:38;19.90;1.00
20182;DHT22;10250;50.756;6.172;2023-06-24T22:22:43;19.80;1.00
20182;DHT22;10250;50.756;6.172;2023-06-24T22:24:44;19.80;1.00
20182;DHT22;10250;50.756;6.172;2023-06-24T22:26:46;19.70;1.00
20182;DHT22;10250;50.756;6.172;2023-06-24T22:28:46;19.70;1.00
20182;DHT22;10250;50.756;6.172;2023-06-24T22:30:47;19.70;1.00
20182;DHT22;10250;50.756;6.172;2023-06-24T22:32:47;19.60;1.00
20182;DHT22;10250;50.756;6.172;2023-06-24T22:34:48;19.70;1.00
20182;DHT22;10250;50.756;6.172;2023-06-24T22:37:20;19.70;1.00
20182;DHT22;10250;50.756;6.172;2023-06-24T22:39:21;19.70;1.00
20182;DHT22;10250;50.756;6.172;2023-06-24T22:41:22;19.70;1.00
20182;DHT22;10250;50.756;6.172;2023-06-24T22:43:23;19.60;1.00
20182;DHT22;10250;50.756;6.172;2023-06-24T22:45:23;19.50;1.00
20182;DHT22;10250;50.756;6.172;2023-06-24T22:47:24;19.50;1.00
20182;DHT22;10250;50.756;6.172;2023-06-24T22:49:24;19.40;1.00
20182;DHT22;10250;50.756;6.172;2023-06-24T22:51:25;19.40;1.00
20182;DHT22;10250;50.756;6.172;2023-06-24T22:53:26;19.40;1.00
20182;DHT22;10250;50.756;6.172;2023-06-24T22:55:26;19.30;8.90
20182;DHT22;10250;50.756;6.172;2023-06-24T22:57:27;19.30;1.00
20182;DHT22;10250;50.756;6.172;2023-06-24T22:59:27;19.30;1.00
20182;DHT22;10250;50.756;6.172;2023-06-24T23:01:28;19.30;1.00
20182;DHT22;10250;50.756;6.172;2023-06-24T23:03:29;19.20;1.00
20182;DHT22;10250;50.756;6.172;2023-06-24T23:05:30;19.20;1.00
20182;DHT22;10250;50.756;6.172;2023-06-24T23:07:30;19.20;1.00
20182;DHT22;10250;50.756;6.172;2023-06-24T23:09:31;19.20;1.00
20182;DHT22;10250;50.756;6.172;2023-06-24T23:11:32;19.20;1.00
20182;DHT22;10250;50.756;6.172;2023-06-24T23:13:33;19.10;1.00
20182;DHT22;10250;50.756;6.172;2023-06-24T23:15:35;19.10;1.00
20182;DHT22;10250;50.756;6.172;2023-06-24T23:17:37;19.10;1.00
20182;DHT22;10250;50.756;6.172;2023-06-24T23:19:38;19.10;1.00
20182;DHT22;10250;50.756;6.172;2023-06-24T23:21:39;19.10;1.00
20182;DHT22;10250;50.756;6.172;2023-06-24T23:23:39;19.10;1.00
20182;DHT22;10250;50.756;6.172;2023-06-24T23:25:41;19.10;1.00
20182;DHT22;10250;50.756;6.172;2023-06-24T23:27:42;19.00;1.00
20182;DHT22;10250;50.756;6.172;2023-06-24T23:29:44;19.00;1.00
20182;DHT22;10250;50.756;6.172;2023-06-24T23:31:48;19.00;1.00
20182;DHT22;10250;50.756;6.172;2023-06-24T23:33:49;19.00;1.00
20182;DHT22;10250;50.756;6.172;2023-06-24T23:35:50;19.00;1.00
20182;DHT22;10250;50.756;6.172;2023-06-24T23:37:51;19.00;1.00
20182;DHT22;10250;50.756;6.172;2023-06-24T23:39:52;19.00;1.00
20182;DHT22;10250;50.756;6.172;2023-06-24T23:41:54;19.00;1.00
20182;DHT22;10250;50.756;6.172;2023-06-24T23:43:55;19.00;1.00
20182;DHT22;10250;50.756;6.172;2023-06-24T23:45:56;18.90;1.00
20182;DHT22;10250;50.756;6.172;2023-06-24T23:47:56;18.90;1.00
20182;DHT22;10250;50.756;6.172;2023-06-24T23:49:57;18.90;1.00
20182;DHT22;10250;50.756;6.172;2023-06-24T23:51:59;18.90;1.00
20182;DHT22;10250;50.756;6.172;2023-06-24T23:54:00;18.90;1.00
20182;DHT22;10250;50.756;6.172;2023-06-24T23:56:00;18.90;1.00
20182;DHT22;10250;50.756;6.172;2023-06-24T23:58:01;18.90;1.00
